sensor_id;sensor_type;location;lat;lon;timestamp;temperature;humidity
43995;DHT22;51687;52.160;5.298;2023-05-16T00:01:47;16.80;51.10
43995;DHT22;51687;52.160;5.298;2023-05-16T00:04:14;16.70;50.90
43995;DHT22;51687;52.160;5.298;2023-05-16T00:06:43;16.70;50.90
43995;DHT22;51687;52.160;5.298;2023-05-16T00:09:10;16.70;50.80
43995;DHT22;51687;52.160;5.298;2023-05-16T00:11:37;16.70;51.10
43995;DHT22;51687;52.160;5.298;2023-05-16T00:14:03;16.70;50.80
43995;DHT22;51687;52.160;5.298;2023-05-16T00:16:30;16.70;50.90
43995;DHT22;51687;52.160;5.298;2023-05-16T00:18:57;16.60;50.80
43995;DHT22;51687;52.160;5.298;2023-05-16T00:21:25;16.60;50.50
43995;DHT22;51687;52.160;5.298;2023-05-16T00:23:52;16.60;50.50
43995;DHT22;51687;52.160;5.298;2023-05-16T00:26:18;16.60;50.30
43995;DHT22;51687;52.160;5.298;2023-05-16T00:28:47;16.60;50.50
43995;DHT22;51687;52.160;5.298;2023-05-16T00:31:14;16.60;50.40
43995;DHT22;51687;52.160;5.298;2023-05-16T00:33:41;16.60;50.40
43995;DHT22;51687;52.160;5.298;2023-05-16T00:41:03;16.60;50.20
43995;DHT22;51687;52.160;5.298;2023-05-16T01:21:11;16.10;51.10
43995;DHT22;51687;52.160;5.298;2023-05-16T01:24:12;16.10;51.20
43995;DHT22;51687;52.160;5.298;2023-05-16T01:26:42;16.10;51.30
43995;DHT22;51687;52.160;5.298;2023-05-16T01:29:09;16.10;51.60
43995;DHT22;51687;52.160;5.298;2023-05-16T01:31:36;16.10;51.40
43995;DHT22;51687;52.160;5.298;2023-05-16T01:34:03;16.00;51.50
43995;DHT22;51687;52.160;5.298;2023-05-16T01:36:52;16.00;51.30
43995;DHT22;51687;52.160;5.298;2023-05-16T01:39:32;16.00;51.10
43995;DHT22;51687;52.160;5.298;2023-05-16T01:42:12;16.00;51.20
43995;DHT22;51687;52.160;5.298;2023-05-16T01:47:35;15.90;51.80
43995;DHT22;51687;52.160;5.298;2023-05-16T01:50:15;15.90;51.80
43995;DHT22;51687;52.160;5.298;2023-05-16T01:52:52;15.80;51.90
43995;DHT22;51687;52.160;5.298;2023-05-16T01:55:38;15.80;51.80
43995;DHT22;51687;52.160;5.298;2023-05-16T01:58:09;15.80;51.50
43995;DHT22;51687;52.160;5.298;2023-05-16T02:00:36;15.80;51.70
43995;DHT22;51687;52.160;5.298;2023-05-16T02:03:03;15.80;51.70
43995;DHT22;51687;52.160;5.298;2023-05-16T02:05:30;15.80;51.70
43995;DHT22;51687;52.160;5.298;2023-05-16T02:07:58;15.70;51.70
43995;DHT22;51687;52.160;5.298;2023-05-16T02:10:26;15.70;51.70
43995;DHT22;51687;52.160;5.298;2023-05-16T02:12:52;15.70;51.80
43995;DHT22;51687;52.160;5.298;2023-05-16T02:15:19;15.70;51.90
43995;DHT22;51687;52.160;5.298;2023-05-16T02:17:46;15.70;52.00
43995;DHT22;51687;52.160;5.298;2023-05-16T02:20:13;15.60;52.10
43995;DHT22;51687;52.160;5.298;2023-05-16T02:22:40;15.60;52.10
43995;DHT22;51687;52.160;5.298;2023-05-16T02:25:10;15.60;52.30
43995;DHT22;51687;52.160;5.298;2023-05-16T02:27:36;15.60;52.30
43995;DHT22;51687;52.160;5.298;2023-05-16T02:30:03;15.60;52.50
43995;DHT22;51687;52.160;5.298;2023-05-16T02:32:31;15.50;52.30
43995;DHT22;51687;52.160;5.298;2023-05-16T02:34:59;15.50;52.40
43995;DHT22;51687;52.160;5.298;2023-05-16T02:37:26;15.50;52.50
43995;DHT22;51687;52.160;5.298;2023-05-16T02:39:53;15.50;52.60
43995;DHT22;51687;52.160;5.298;2023-05-16T02:42:19;15.50;52.80
43995;DHT22;51687;52.160;5.298;2023-05-16T02:44:46;15.50;52.60
43995;DHT22;51687;52.160;5.298;2023-05-16T02:47:14;15.50;52.60
43995;DHT22;51687;52.160;5.298;2023-05-16T02:49:41;15.40;52.60
43995;DHT22;51687;52.160;5.298;2023-05-16T02:57:02;15.40;52.80
43995;DHT22;51687;52.160;5.298;2023-05-16T02:59:29;15.40;53.10
43995;DHT22;51687;52.160;5.298;2023-05-16T03:01:56;15.30;52.80
43995;DHT22;51687;52.160;5.298;2023-05-16T03:04:22;15.30;53.00
43995;DHT22;51687;52.160;5.298;2023-05-16T03:06:49;15.30;53.00
43995;DHT22;51687;52.160;5.298;2023-05-16T03:09:16;15.30;52.90
43995;DHT22;51687;52.160;5.298;2023-05-16T03:11:44;15.20;53.00
43995;DHT22;51687;52.160;5.298;2023-05-16T03:14:10;15.20;53.00
43995;DHT22;51687;52.160;5.298;2023-05-16T03:16:38;15.20;52.90
43995;DHT22;51687;52.160;5.298;2023-05-16T03:19:05;15.20;53.10
43995;DHT22;51687;52.160;5.298;2023-05-16T03:21:32;15.20;53.10
43995;DHT22;51687;52.160;5.298;2023-05-16T03:24:02;15.20;53.10
43995;DHT22;51687;52.160;5.298;2023-05-16T03:26:29;15.10;53.00
43995;DHT22;51687;52.160;5.298;2023-05-16T03:28:56;15.10;53.20
43995;DHT22;51687;52.160;5.298;2023-05-16T03:31:23;15.10;53.10
43995;DHT22;51687;52.160;5.298;2023-05-16T03:33:51;15.10;53.00
43995;DHT22;51687;52.160;5.298;2023-05-16T03:36:20;15.10;53.50
43995;DHT22;51687;52.160;5.298;2023-05-16T03:38:47;15.10;52.80
43995;DHT22;51687;52.160;5.298;2023-05-16T03:41:14;15.10;52.70
43995;DHT22;51687;52.160;5.298;2023-05-16T03:43:41;15.00;52.80
43995;DHT22;51687;52.160;5.298;2023-05-16T03:46:07;15.00;52.70
43995;DHT22;51687;52.160;5.298;2023-05-16T03:48:34;14.90;52.70
43995;DHT22;51687;52.160;5.298;2023-05-16T03:51:01;14.90;52.80
43995;DHT22;51687;52.160;5.298;2023-05-16T03:53:28;14.90;52.80
43995;DHT22;51687;52.160;5.298;2023-05-16T03:55:54;14.90;53.00
43995;DHT22;51687;52.160;5.298;2023-05-16T03:58:21;14.80;53.00
43995;DHT22;51687;52.160;5.298;2023-05-16T04:00:48;14.80;53.30
43995;DHT22;51687;52.160;5.298;2023-05-16T04:03:15;14.80;53.30
43995;DHT22;51687;52.160;5.298;2023-05-16T04:05:42;14.80;53.30
43995;DHT22;51687;52.160;5.298;2023-05-16T04:08:09;14.80;53.40
43995;DHT22;51687;52.160;5.298;2023-05-16T04:10:35;14.80;53.80
43995;DHT22;51687;52.160;5.298;2023-05-16T04:13:02;14.80;53.20
43995;DHT22;51687;52.160;5.298;2023-05-16T04:15:29;14.70;53.40
43995;DHT22;51687;52.160;5.298;2023-05-16T04:17:56;14.70;53.50
43995;DHT22;51687;52.160;5.298;2023-05-16T04:20:22;14.70;53.50
43995;DHT22;51687;52.160;5.298;2023-05-16T04:22:49;14.70;53.70
43995;DHT22;51687;52.160;5.298;2023-05-16T04:25:16;14.70;53.60
43995;DHT22;51687;52.160;5.298;2023-05-16T04:27:43;14.70;53.80
43995;DHT22;51687;52.160;5.298;2023-05-16T04:30:10;14.60;53.60
43995;DHT22;51687;52.160;5.298;2023-05-16T04:32:37;14.60;53.90
43995;DHT22;51687;52.160;5.298;2023-05-16T04:35:04;14.60;53.80
43995;DHT22;51687;52.160;5.298;2023-05-16T04:37:32;14.60;53.80
43995;DHT22;51687;52.160;5.298;2023-05-16T04:39:58;14.60;54.00
43995;DHT22;51687;52.160;5.298;2023-05-16T04:42:25;14.60;53.90
43995;DHT22;51687;52.160;5.298;2023-05-16T04:44:52;14.60;54.30
43995;DHT22;51687;52.160;5.298;2023-05-16T04:47:19;14.60;54.20
43995;DHT22;51687;52.160;5.298;2023-05-16T04:49:46;14.60;54.50
43995;DHT22;51687;52.160;5.298;2023-05-16T04:52:14;14.60;54.50
43995;DHT22;51687;52.160;5.298;2023-05-16T04:54:41;14.60;54.40
43995;DHT22;51687;52.160;5.298;2023-05-16T04:57:08;14.60;54.40
43995;DHT22;51687;52.160;5.298;2023-05-16T04:59:35;14.60;54.50
43995;DHT22;51687;52.160;5.298;2023-05-16T05:02:02;14.60;54.40
43995;DHT22;51687;52.160;5.298;2023-05-16T05:04:29;14.60;54.60
43995;DHT22;51687;52.160;5.298;2023-05-16T05:06:57;14.60;54.80
43995;DHT22;51687;52.160;5.298;2023-05-16T05:09:23;14.60;54.90
43995;DHT22;51687;52.160;5.298;2023-05-16T05:11:51;14.60;55.10
43995;DHT22;51687;52.160;5.298;2023-05-16T05:14:18;14.60;54.90
43995;DHT22;51687;52.160;5.298;2023-05-16T05:16:46;14.70;55.00
43995;DHT22;51687;52.160;5.298;2023-05-16T05:19:12;14.70;55.60
43995;DHT22;51687;52.160;5.298;2023-05-16T05:21:39;14.80;55.60
43995;DHT22;51687;52.160;5.298;2023-05-16T05:24:06;14.90;55.30
43995;DHT22;51687;52.160;5.298;2023-05-16T05:26:33;15.10;54.70
43995;DHT22;51687;52.160;5.298;2023-05-16T05:29:00;15.20;54.60
43995;DHT22;51687;52.160;5.298;2023-05-16T05:31:31;15.20;54.60
43995;DHT22;51687;52.160;5.298;2023-05-16T05:34:02;15.40;55.10
43995;DHT22;51687;52.160;5.298;2023-05-16T07:42:06;15.50;55.30
43995;DHT22;51687;52.160;5.298;2023-05-16T07:44:34;17.50;48.30
43995;DHT22;51687;52.160;5.298;2023-05-16T07:47:01;17.60;48.70
43995;DHT22;51687;52.160;5.298;2023-05-16T07:56:50;17.60;48.30
43995;DHT22;51687;52.160;5.298;2023-05-16T08:53:31;17.60;48.10
43995;DHT22;51687;52.160;5.298;2023-05-16T08:56:02;17.90;45.80
43995;DHT22;51687;52.160;5.298;2023-05-16T09:33:14;17.90;46.40
43995;DHT22;51687;52.160;5.298;2023-05-16T09:35:41;18.00;46.70
43995;DHT22;51687;52.160;5.298;2023-05-16T09:38:15;18.00;47.70
43995;DHT22;51687;52.160;5.298;2023-05-16T09:40:44;18.10;46.50
43995;DHT22;51687;52.160;5.298;2023-05-16T09:43:14;18.10;46.70
43995;DHT22;51687;52.160;5.298;2023-05-16T09:45:46;18.10;46.00
43995;DHT22;51687;52.160;5.298;2023-05-16T09:48:14;18.10;45.50
43995;DHT22;51687;52.160;5.298;2023-05-16T09:50:46;18.10;45.10
43995;DHT22;51687;52.160;5.298;2023-05-16T09:53:14;18.20;49.70
43995;DHT22;51687;52.160;5.298;2023-05-16T09:55:41;18.20;44.60
43995;DHT22;51687;52.160;5.298;2023-05-16T12:41:30;18.20;44.30
43995;DHT22;51687;52.160;5.298;2023-05-16T12:44:09;18.60;42.30
43995;DHT22;51687;52.160;5.298;2023-05-16T12:46:45;18.60;42.40
43995;DHT22;51687;52.160;5.298;2023-05-16T12:49:14;18.60;41.70
43995;DHT22;51687;52.160;5.298;2023-05-16T12:51:51;18.60;42.40
43995;DHT22;51687;52.160;5.298;2023-05-16T12:54:19;18.50;42.00
43995;DHT22;51687;52.160;5.298;2023-05-16T12:56:48;18.50;43.70
43995;DHT22;51687;52.160;5.298;2023-05-16T12:59:14;18.60;44.30
43995;DHT22;51687;52.160;5.298;2023-05-16T13:01:43;18.60;43.50
43995;DHT22;51687;52.160;5.298;2023-05-16T13:04:12;18.60;43.60
43995;DHT22;51687;52.160;5.298;2023-05-16T13:06:43;18.60;43.00
43995;DHT22;51687;52.160;5.298;2023-05-16T13:09:25;18.70;43.60
43995;DHT22;51687;52.160;5.298;2023-05-16T13:11:56;18.60;43.10
43995;DHT22;51687;52.160;5.298;2023-05-16T13:14:23;18.70;44.20
43995;DHT22;51687;52.160;5.298;2023-05-16T13:16:50;18.70;42.70
43995;DHT22;51687;52.160;5.298;2023-05-16T13:19:17;18.70;42.80
43995;DHT22;51687;52.160;5.298;2023-05-16T13:21:44;18.70;43.00
43995;DHT22;51687;52.160;5.298;2023-05-16T13:24:10;18.60;42.30
43995;DHT22;51687;52.160;5.298;2023-05-16T13:26:37;18.70;42.60
43995;DHT22;51687;52.160;5.298;2023-05-16T13:29:05;18.70;43.80
43995;DHT22;51687;52.160;5.298;2023-05-16T13:31:31;18.80;44.00
43995;DHT22;51687;52.160;5.298;2023-05-16T15:47:24;18.80;42.70
43995;DHT22;51687;52.160;5.298;2023-05-16T15:49:51;18.40;41.10
43995;DHT22;51687;52.160;5.298;2023-05-16T15:52:18;18.40;42.30
43995;DHT22;51687;52.160;5.298;2023-05-16T15:54:48;18.40;42.30
43995;DHT22;51687;52.160;5.298;2023-05-16T15:57:15;18.40;41.90
43995;DHT22;51687;52.160;5.298;2023-05-16T15:59:42;18.30;41.80
43995;DHT22;51687;52.160;5.298;2023-05-16T16:02:09;18.30;42.00
43995;DHT22;51687;52.160;5.298;2023-05-16T16:04:36;18.40;42.60
43995;DHT22;51687;52.160;5.298;2023-05-16T16:07:03;18.30;42.40
43995;DHT22;51687;52.160;5.298;2023-05-16T16:09:30;18.30;42.80
43995;DHT22;51687;52.160;5.298;2023-05-16T16:11:56;18.30;43.50
43995;DHT22;51687;52.160;5.298;2023-05-16T16:14:24;18.40;43.10
43995;DHT22;51687;52.160;5.298;2023-05-16T16:16:51;18.30;43.60
43995;DHT22;51687;52.160;5.298;2023-05-16T16:19:17;18.30;43.50
43995;DHT22;51687;52.160;5.298;2023-05-16T16:21:44;18.20;44.60
43995;DHT22;51687;52.160;5.298;2023-05-16T16:24:11;18.30;46.30
43995;DHT22;51687;52.160;5.298;2023-05-16T16:26:40;18.20;46.90
43995;DHT22;51687;52.160;5.298;2023-05-16T16:29:07;18.20;47.10
43995;DHT22;51687;52.160;5.298;2023-05-16T16:31:35;18.20;47.20
43995;DHT22;51687;52.160;5.298;2023-05-16T16:34:02;18.20;48.20
43995;DHT22;51687;52.160;5.298;2023-05-16T16:36:29;18.20;47.80
43995;DHT22;51687;52.160;5.298;2023-05-16T16:38:57;18.20;47.50
43995;DHT22;51687;52.160;5.298;2023-05-16T16:41:24;18.20;47.50
43995;DHT22;51687;52.160;5.298;2023-05-16T16:43:51;18.20;48.30
43995;DHT22;51687;52.160;5.298;2023-05-16T16:46:18;18.10;48.50
43995;DHT22;51687;52.160;5.298;2023-05-16T16:48:45;18.20;49.40
43995;DHT22;51687;52.160;5.298;2023-05-16T16:51:12;18.20;48.30
43995;DHT22;51687;52.160;5.298;2023-05-16T16:58:34;18.10;48.30
43995;DHT22;51687;52.160;5.298;2023-05-16T17:01:01;18.10;47.70
43995;DHT22;51687;52.160;5.298;2023-05-16T17:03:28;18.10;48.70
43995;DHT22;51687;52.160;5.298;2023-05-16T17:05:55;18.10;48.70
43995;DHT22;51687;52.160;5.298;2023-05-16T17:08:21;18.00;48.30
43995;DHT22;51687;52.160;5.298;2023-05-16T17:10:48;18.00;48.80
43995;DHT22;51687;52.160;5.298;2023-05-16T17:13:15;18.00;49.60
43995;DHT22;51687;52.160;5.298;2023-05-16T17:15:43;18.00;49.80
43995;DHT22;51687;52.160;5.298;2023-05-16T17:18:10;18.00;49.80
43995;DHT22;51687;52.160;5.298;2023-05-16T17:20:37;18.00;49.90
43995;DHT22;51687;52.160;5.298;2023-05-16T17:23:04;17.90;49.00
43995;DHT22;51687;52.160;5.298;2023-05-16T17:25:31;17.90;48.80
43995;DHT22;51687;52.160;5.298;2023-05-16T17:27:58;17.90;48.90
43995;DHT22;51687;52.160;5.298;2023-05-16T17:30:25;17.90;49.20
43995;DHT22;51687;52.160;5.298;2023-05-16T17:32:52;17.80;48.20
43995;DHT22;51687;52.160;5.298;2023-05-16T17:35:19;17.80;48.10
43995;DHT22;51687;52.160;5.298;2023-05-16T17:37:46;17.80;47.90
43995;DHT22;51687;52.160;5.298;2023-05-16T17:40:13;17.70;47.60
43995;DHT22;51687;52.160;5.298;2023-05-16T17:42:44;17.70;47.70
43995;DHT22;51687;52.160;5.298;2023-05-16T17:45:14;17.70;47.90
43995;DHT22;51687;52.160;5.298;2023-05-16T17:47:42;17.70;48.20
43995;DHT22;51687;52.160;5.298;2023-05-16T17:50:09;17.60;47.40
43995;DHT22;51687;52.160;5.298;2023-05-16T17:52:37;17.60;47.10
43995;DHT22;51687;52.160;5.298;2023-05-16T17:55:07;17.60;47.70
43995;DHT22;51687;52.160;5.298;2023-05-16T17:57:34;17.60;47.40
43995;DHT22;51687;52.160;5.298;2023-05-16T18:00:01;17.70;47.10
43995;DHT22;51687;52.160;5.298;2023-05-16T18:02:31;17.70;47.20
43995;DHT22;51687;52.160;5.298;2023-05-16T18:04:58;17.70;47.60
43995;DHT22;51687;52.160;5.298;2023-05-16T18:07:25;17.70;47.20
43995;DHT22;51687;52.160;5.298;2023-05-16T18:09:52;17.70;47.40
43995;DHT22;51687;52.160;5.298;2023-05-16T18:12:20;17.70;47.50
43995;DHT22;51687;52.160;5.298;2023-05-16T18:14:47;17.70;47.60
43995;DHT22;51687;52.160;5.298;2023-05-16T18:17:14;17.70;48.10
43995;DHT22;51687;52.160;5.298;2023-05-16T18:19:40;17.70;48.30
43995;DHT22;51687;52.160;5.298;2023-05-16T18:22:07;17.70;48.50
43995;DHT22;51687;52.160;5.298;2023-05-16T18:24:37;17.70;48.80
43995;DHT22;51687;52.160;5.298;2023-05-16T18:27:05;17.70;48.90
43995;DHT22;51687;52.160;5.298;2023-05-16T18:29:32;17.70;49.00
43995;DHT22;51687;52.160;5.298;2023-05-16T18:31:59;17.80;49.10
43995;DHT22;51687;52.160;5.298;2023-05-16T18:34:26;17.80;49.10
43995;DHT22;51687;52.160;5.298;2023-05-16T18:36:54;17.70;49.10
43995;DHT22;51687;52.160;5.298;2023-05-16T18:39:20;17.70;49.10
43995;DHT22;51687;52.160;5.298;2023-05-16T18:41:47;17.70;48.90
43995;DHT22;51687;52.160;5.298;2023-05-16T18:44:14;17.70;49.10
43995;DHT22;51687;52.160;5.298;2023-05-16T18:46:46;17.70;49.20
43995;DHT22;51687;52.160;5.298;2023-05-16T18:49:13;17.70;49.60
43995;DHT22;51687;52.160;5.298;2023-05-16T18:51:40;17.70;49.20
43995;DHT22;51687;52.160;5.298;2023-05-16T18:54:07;17.70;49.30
43995;DHT22;51687;52.160;5.298;2023-05-16T18:56:34;17.70;49.50
43995;DHT22;51687;52.160;5.298;2023-05-16T18:59:01;17.70;49.50
43995;DHT22;51687;52.160;5.298;2023-05-16T19:01:27;17.70;49.80
43995;DHT22;51687;52.160;5.298;2023-05-16T19:03:55;17.70;49.80
43995;DHT22;51687;52.160;5.298;2023-05-16T19:06:25;17.70;49.70
43995;DHT22;51687;52.160;5.298;2023-05-16T19:08:53;17.70;50.00
43995;DHT22;51687;52.160;5.298;2023-05-16T19:11:20;17.70;49.90
43995;DHT22;51687;52.160;5.298;2023-05-16T19:13:48;17.70;50.00
43995;DHT22;51687;52.160;5.298;2023-05-16T19:16:15;17.70;50.10
43995;DHT22;51687;52.160;5.298;2023-05-16T19:18:41;17.70;50.20
43995;DHT22;51687;52.160;5.298;2023-05-16T19:21:09;17.70;50.90
43995;DHT22;51687;52.160;5.298;2023-05-16T19:23:40;17.70;50.40
43995;DHT22;51687;52.160;5.298;2023-05-16T19:26:07;17.60;50.30
43995;DHT22;51687;52.160;5.298;2023-05-16T19:28:34;17.60;50.50
43995;DHT22;51687;52.160;5.298;2023-05-16T19:31:01;17.60;50.60
43995;DHT22;51687;52.160;5.298;2023-05-16T19:33:28;17.60;50.70
43995;DHT22;51687;52.160;5.298;2023-05-16T19:35:55;17.60;50.50
43995;DHT22;51687;52.160;5.298;2023-05-16T19:38:25;17.60;50.90
43995;DHT22;51687;52.160;5.298;2023-05-16T19:40:52;17.60;50.80
43995;DHT22;51687;52.160;5.298;2023-05-16T19:43:19;17.50;50.70
43995;DHT22;51687;52.160;5.298;2023-05-16T19:45:46;17.50;50.80
43995;DHT22;51687;52.160;5.298;2023-05-16T19:48:13;17.50;50.90
43995;DHT22;51687;52.160;5.298;2023-05-16T19:50:40;17.50;51.00
43995;DHT22;51687;52.160;5.298;2023-05-16T19:53:07;17.50;51.10
43995;DHT22;51687;52.160;5.298;2023-05-16T19:55:35;17.40;51.10
43995;DHT22;51687;52.160;5.298;2023-05-16T19:58:03;17.40;51.70
43995;DHT22;51687;52.160;5.298;2023-05-16T20:00:30;17.40;51.00
43995;DHT22;51687;52.160;5.298;2023-05-16T20:02:57;17.40;51.10
43995;DHT22;51687;52.160;5.298;2023-05-16T20:05:24;17.40;51.20
43995;DHT22;51687;52.160;5.298;2023-05-16T20:07:51;17.40;51.20
43995;DHT22;51687;52.160;5.298;2023-05-16T20:10:20;17.40;51.30
43995;DHT22;51687;52.160;5.298;2023-05-16T20:12:47;17.40;51.20
43995;DHT22;51687;52.160;5.298;2023-05-16T20:15:14;17.30;51.20
43995;DHT22;51687;52.160;5.298;2023-05-16T20:17:41;17.30;51.30
43995;DHT22;51687;52.160;5.298;2023-05-16T20:20:08;17.30;51.20
43995;DHT22;51687;52.160;5.298;2023-05-16T20:22:35;17.30;51.10
43995;DHT22;51687;52.160;5.298;2023-05-16T20:25:09;17.30;51.20
43995;DHT22;51687;52.160;5.298;2023-05-16T20:27:36;17.30;51.30
43995;DHT22;51687;52.160;5.298;2023-05-16T20:30:04;17.30;51.20
43995;DHT22;51687;52.160;5.298;2023-05-16T20:32:32;17.20;51.20
43995;DHT22;51687;52.160;5.298;2023-05-16T20:34:59;17.20;51.10
43995;DHT22;51687;52.160;5.298;2023-05-16T20:37:26;17.20;51.40
43995;DHT22;51687;52.160;5.298;2023-05-16T20:39:53;17.10;51.90
43995;DHT22;51687;52.160;5.298;2023-05-16T20:42:20;17.10;52.00
43995;DHT22;51687;52.160;5.298;2023-05-16T20:44:47;17.10;51.90
43995;DHT22;51687;52.160;5.298;2023-05-16T20:47:14;17.10;51.90
43995;DHT22;51687;52.160;5.298;2023-05-16T20:49:42;17.00;51.80
43995;DHT22;51687;52.160;5.298;2023-05-16T20:52:09;17.00;51.80
43995;DHT22;51687;52.160;5.298;2023-05-16T20:54:36;17.00;51.90
43995;DHT22;51687;52.160;5.298;2023-05-16T20:57:03;17.00;52.00
43995;DHT22;51687;52.160;5.298;2023-05-16T20:59:31;17.00;52.10
43995;DHT22;51687;52.160;5.298;2023-05-16T21:01:59;17.00;52.10
43995;DHT22;51687;52.160;5.298;2023-05-16T21:04:26;16.90;51.80
43995;DHT22;51687;52.160;5.298;2023-05-16T21:06:53;16.90;51.90
43995;DHT22;51687;52.160;5.298;2023-05-16T21:09:20;16.90;51.80
43995;DHT22;51687;52.160;5.298;2023-05-16T21:11:46;16.90;52.00
43995;DHT22;51687;52.160;5.298;2023-05-16T21:14:13;16.90;51.80
43995;DHT22;51687;52.160;5.298;2023-05-16T21:16:40;16.90;52.00
43995;DHT22;51687;52.160;5.298;2023-05-16T21:19:07;16.90;52.10
43995;DHT22;51687;52.160;5.298;2023-05-16T21:21:34;16.90;52.00
43995;DHT22;51687;52.160;5.298;2023-05-16T21:24:01;16.90;52.10
43995;DHT22;51687;52.160;5.298;2023-05-16T21:26:29;16.80;51.90
43995;DHT22;51687;52.160;5.298;2023-05-16T21:28:56;16.80;52.50
43995;DHT22;51687;52.160;5.298;2023-05-16T21:31:22;16.80;52.00
43995;DHT22;51687;52.160;5.298;2023-05-16T21:33:49;16.80;52.10
43995;DHT22;51687;52.160;5.298;2023-05-16T21:38:45;16.70;52.10
43995;DHT22;51687;52.160;5.298;2023-05-16T21:41:12;16.70;52.10
43995;DHT22;51687;52.160;5.298;2023-05-16T21:43:40;16.70;52.20
43995;DHT22;51687;52.160;5.298;2023-05-16T21:46:06;16.70;52.20
43995;DHT22;51687;52.160;5.298;2023-05-16T21:48:33;16.70;52.30
43995;DHT22;51687;52.160;5.298;2023-05-16T21:51:00;16.70;52.10
43995;DHT22;51687;52.160;5.298;2023-05-16T21:53:27;16.70;52.20
43995;DHT22;51687;52.160;5.298;2023-05-16T21:55:54;16.70;52.30
43995;DHT22;51687;52.160;5.298;2023-05-16T21:58:21;16.60;52.10
43995;DHT22;51687;52.160;5.298;2023-05-16T22:00:47;16.60;52.20
43995;DHT22;51687;52.160;5.298;2023-05-16T22:03:15;16.60;52.30
43995;DHT22;51687;52.160;5.298;2023-05-16T22:05:44;16.60;52.40
43995;DHT22;51687;52.160;5.298;2023-05-16T22:08:12;16.60;52.40
43995;DHT22;51687;52.160;5.298;2023-05-16T22:10:39;16.60;52.40
43995;DHT22;51687;52.160;5.298;2023-05-16T22:13:05;16.50;52.40
43995;DHT22;51687;52.160;5.298;2023-05-16T22:15:33;16.50;52.60
43995;DHT22;51687;52.160;5.298;2023-05-16T22:18:00;16.50;52.50
43995;DHT22;51687;52.160;5.298;2023-05-16T22:20:27;16.50;52.50
43995;DHT22;51687;52.160;5.298;2023-05-16T22:22:55;16.50;52.60
43995;DHT22;51687;52.160;5.298;2023-05-16T22:25:22;16.40;52.50
43995;DHT22;51687;52.160;5.298;2023-05-16T22:27:49;16.40;52.70
43995;DHT22;51687;52.160;5.298;2023-05-16T22:30:16;16.40;52.90
43995;DHT22;51687;52.160;5.298;2023-05-16T22:32:42;16.40;52.90
43995;DHT22;51687;52.160;5.298;2023-05-16T22:35:14;16.40;52.90
43995;DHT22;51687;52.160;5.298;2023-05-16T22:37:41;16.30;52.80
43995;DHT22;51687;52.160;5.298;2023-05-16T22:40:08;16.30;53.00
43995;DHT22;51687;52.160;5.298;2023-05-16T22:42:35;16.30;53.10
43995;DHT22;51687;52.160;5.298;2023-05-16T22:45:03;16.30;53.20
43995;DHT22;51687;52.160;5.298;2023-05-16T22:47:30;16.20;53.30
43995;DHT22;51687;52.160;5.298;2023-05-16T22:49:57;16.20;53.20
43995;DHT22;51687;52.160;5.298;2023-05-16T22:52:24;16.20;53.30
43995;DHT22;51687;52.160;5.298;2023-05-16T22:54:51;16.20;53.40
43995;DHT22;51687;52.160;5.298;2023-05-16T22:57:17;16.20;53.50
43995;DHT22;51687;52.160;5.298;2023-05-16T22:59:44;16.20;53.50
43995;DHT22;51687;52.160;5.298;2023-05-16T23:02:11;16.20;53.50
43995;DHT22;51687;52.160;5.298;2023-05-16T23:04:38;16.20;53.40
43995;DHT22;51687;52.160;5.298;2023-05-16T23:07:04;16.20;53.60
43995;DHT22;51687;52.160;5.298;2023-05-16T23:09:31;16.20;53.60
43995;DHT22;51687;52.160;5.298;2023-05-16T23:11:58;16.20;53.60
43995;DHT22;51687;52.160;5.298;2023-05-16T23:14:25;16.20;53.70
43995;DHT22;51687;52.160;5.298;2023-05-16T23:16:52;16.10;53.60
43995;DHT22;51687;52.160;5.298;2023-05-16T23:19:21;16.10;53.80
43995;DHT22;51687;52.160;5.298;2023-05-16T23:21:48;16.10;53.90
43995;DHT22;51687;52.160;5.298;2023-05-16T23:24:15;16.10;53.90
43995;DHT22;51687;52.160;5.298;2023-05-16T23:26:42;16.10;53.80
43995;DHT22;51687;52.160;5.298;2023-05-16T23:29:09;16.00;53.70
43995;DHT22;51687;52.160;5.298;2023-05-16T23:31:36;16.00;53.90
43995;DHT22;51687;52.160;5.298;2023-05-16T23:34:02;16.00;53.70
43995;DHT22;51687;52.160;5.298;2023-05-16T23:36:30;16.00;53.60
43995;DHT22;51687;52.160;5.298;2023-05-16T23:38:56;16.00;53.70
43995;DHT22;51687;52.160;5.298;2023-05-16T23:41:23;16.00;53.60
43995;DHT22;51687;52.160;5.298;2023-05-16T23:43:50;15.90;53.70
43995;DHT22;51687;52.160;5.298;2023-05-16T23:46:17;16.00;53.90
43995;DHT22;51687;52.160;5.298;2023-05-16T23:48:44;15.90;54.20
43995;DHT22;51687;52.160;5.298;2023-05-16T23:51:11;15.90;53.70
43995;DHT22;51687;52.160;5.298;2023-05-16T23:53:38;15.90;53.90
43995;DHT22;51687;52.160;5.298;2023-05-16T23:56:04;15.90;53.90
43995;DHT22;51687;52.160;5.298;2023-05-16T23:58:31;15.80;54.00
